sensor_id;sensor_type;location;lat;lon;timestamp;temperature;humidity
39919;DHT22;25589;51.552;13.424;2022-08-20T00:00:33;21.70;99.90
39919;DHT22;25589;51.552;13.424;2022-08-20T00:03:09;21.70;99.90
39919;DHT22;25589;51.552;13.424;2022-08-20T00:05:38;21.70;99.90
39919;DHT22;25589;51.552;13.424;2022-08-20T00:08:04;21.70;99.90
39919;DHT22;25589;51.552;13.424;2022-08-20T00:10:31;21.60;99.90
39919;DHT22;25589;51.552;13.424;2022-08-20T00:12:57;21.60;99.90
39919;DHT22;25589;51.552;13.424;2022-08-20T00:15:26;21.60;99.90
39919;DHT22;25589;51.552;13.424;2022-08-20T00:17:54;21.60;99.90
39919;DHT22;25589;51.552;13.424;2022-08-20T00:20:22;21.50;99.90
39919;DHT22;25589;51.552;13.424;2022-08-20T00:22:49;21.50;99.90
39919;DHT22;25589;51.552;13.424;2022-08-20T00:25:15;21.50;99.90
39919;DHT22;25589;51.552;13.424;2022-08-20T00:27:41;21.40;99.90
39919;DHT22;25589;51.552;13.424;2022-08-20T00:30:10;21.40;99.90
39919;DHT22;25589;51.552;13.424;2022-08-20T00:32:52;21.40;99.90
39919;DHT22;25589;51.552;13.424;2022-08-20T00:35:20;21.40;99.90
39919;DHT22;25589;51.552;13.424;2022-08-20T00:37:46;21.30;99.90
39919;DHT22;25589;51.552;13.424;2022-08-20T00:40:14;21.30;99.90
39919;DHT22;25589;51.552;13.424;2022-08-20T00:42:43;21.30;99.90
39919;DHT22;25589;51.552;13.424;2022-08-20T00:45:10;21.20;99.90
39919;DHT22;25589;51.552;13.424;2022-08-20T00:47:37;21.20;99.90
39919;DHT22;25589;51.552;13.424;2022-08-20T00:50:06;21.20;99.90
39919;DHT22;25589;51.552;13.424;2022-08-20T00:52:32;21.20;99.90
39919;DHT22;25589;51.552;13.424;2022-08-20T00:54:59;21.10;99.90
39919;DHT22;25589;51.552;13.424;2022-08-20T00:57:30;21.10;99.90
39919;DHT22;25589;51.552;13.424;2022-08-20T01:00:00;21.10;99.90
39919;DHT22;25589;51.552;13.424;2022-08-20T01:02:31;21.00;99.90
39919;DHT22;25589;51.552;13.424;2022-08-20T01:04:57;21.00;99.90
39919;DHT22;25589;51.552;13.424;2022-08-20T01:07:25;20.90;99.90
39919;DHT22;25589;51.552;13.424;2022-08-20T01:10:12;20.90;99.90
39919;DHT22;25589;51.552;13.424;2022-08-20T01:12:40;20.90;99.90
39919;DHT22;25589;51.552;13.424;2022-08-20T01:15:08;20.90;99.90
39919;DHT22;25589;51.552;13.424;2022-08-20T01:17:38;20.90;99.90
39919;DHT22;25589;51.552;13.424;2022-08-20T01:20:15;20.90;99.90
39919;DHT22;25589;51.552;13.424;2022-08-20T01:23:05;20.80;99.90
39919;DHT22;25589;51.552;13.424;2022-08-20T01:26:00;20.80;99.90
39919;DHT22;25589;51.552;13.424;2022-08-20T01:28:39;20.90;99.90
39919;DHT22;25589;51.552;13.424;2022-08-20T01:31:09;20.90;99.90
39919;DHT22;25589;51.552;13.424;2022-08-20T01:33:35;20.70;99.90
39919;DHT22;25589;51.552;13.424;2022-08-20T01:36:02;20.70;99.90
39919;DHT22;25589;51.552;13.424;2022-08-20T01:38:28;20.70;99.90
39919;DHT22;25589;51.552;13.424;2022-08-20T01:41:18;20.80;99.90
39919;DHT22;25589;51.552;13.424;2022-08-20T01:43:49;20.70;99.90
39919;DHT22;25589;51.552;13.424;2022-08-20T01:46:16;20.80;99.90
39919;DHT22;25589;51.552;13.424;2022-08-20T01:48:43;20.80;99.90
39919;DHT22;25589;51.552;13.424;2022-08-20T01:51:13;20.80;99.90
39919;DHT22;25589;51.552;13.424;2022-08-20T01:53:42;20.80;99.90
39919;DHT22;25589;51.552;13.424;2022-08-20T01:56:12;20.70;99.90
39919;DHT22;25589;51.552;13.424;2022-08-20T01:58:41;20.70;99.90
39919;DHT22;25589;51.552;13.424;2022-08-20T02:01:07;20.70;99.90
39919;DHT22;25589;51.552;13.424;2022-08-20T02:03:32;20.70;99.90
39919;DHT22;25589;51.552;13.424;2022-08-20T02:05:59;20.70;99.90
39919;DHT22;25589;51.552;13.424;2022-08-20T02:08:25;20.70;99.90
39919;DHT22;25589;51.552;13.424;2022-08-20T02:10:51;20.70;99.90
39919;DHT22;25589;51.552;13.424;2022-08-20T02:13:17;20.70;99.90
39919;DHT22;25589;51.552;13.424;2022-08-20T02:15:42;20.70;99.90
39919;DHT22;25589;51.552;13.424;2022-08-20T02:18:11;20.60;99.90
39919;DHT22;25589;51.552;13.424;2022-08-20T02:20:38;20.60;99.90
39919;DHT22;25589;51.552;13.424;2022-08-20T02:23:06;20.60;99.90
39919;DHT22;25589;51.552;13.424;2022-08-20T02:25:33;20.60;99.90
39919;DHT22;25589;51.552;13.424;2022-08-20T02:28:05;20.50;99.90
39919;DHT22;25589;51.552;13.424;2022-08-20T02:30:39;20.50;99.90
39919;DHT22;25589;51.552;13.424;2022-08-20T02:33:11;20.50;99.90
39919;DHT22;25589;51.552;13.424;2022-08-20T02:35:39;20.40;99.90
39919;DHT22;25589;51.552;13.424;2022-08-20T02:38:05;20.40;99.90
39919;DHT22;25589;51.552;13.424;2022-08-20T02:40:31;20.40;99.90
39919;DHT22;25589;51.552;13.424;2022-08-20T02:43:01;20.40;99.90
39919;DHT22;25589;51.552;13.424;2022-08-20T02:45:29;20.40;99.90
39919;DHT22;25589;51.552;13.424;2022-08-20T02:47:55;20.40;99.90
39919;DHT22;25589;51.552;13.424;2022-08-20T02:50:24;20.50;99.90
39919;DHT22;25589;51.552;13.424;2022-08-20T02:52:50;20.50;99.90
39919;DHT22;25589;51.552;13.424;2022-08-20T02:55:16;20.40;99.90
39919;DHT22;25589;51.552;13.424;2022-08-20T02:57:42;20.50;99.90
39919;DHT22;25589;51.552;13.424;2022-08-20T03:00:15;20.50;99.90
39919;DHT22;25589;51.552;13.424;2022-08-20T03:02:41;20.60;99.90
39919;DHT22;25589;51.552;13.424;2022-08-20T03:05:08;20.60;99.90
39919;DHT22;25589;51.552;13.424;2022-08-20T03:07:48;20.50;99.90
39919;DHT22;25589;51.552;13.424;2022-08-20T03:10:15;20.50;99.90
39919;DHT22;25589;51.552;13.424;2022-08-20T03:12:41;20.50;99.90
39919;DHT22;25589;51.552;13.424;2022-08-20T03:15:09;20.40;99.90
39919;DHT22;25589;51.552;13.424;2022-08-20T03:17:35;20.40;99.90
39919;DHT22;25589;51.552;13.424;2022-08-20T03:20:03;20.40;99.90
39919;DHT22;25589;51.552;13.424;2022-08-20T03:22:29;20.40;99.90
39919;DHT22;25589;51.552;13.424;2022-08-20T03:24:54;20.40;99.90
39919;DHT22;25589;51.552;13.424;2022-08-20T03:27:21;20.40;99.90
39919;DHT22;25589;51.552;13.424;2022-08-20T03:29:46;20.40;99.90
39919;DHT22;25589;51.552;13.424;2022-08-20T03:32:12;20.40;99.90
39919;DHT22;25589;51.552;13.424;2022-08-20T03:34:38;20.40;99.90
39919;DHT22;25589;51.552;13.424;2022-08-20T03:37:04;20.30;99.90
39919;DHT22;25589;51.552;13.424;2022-08-20T03:39:29;20.30;99.90
39919;DHT22;25589;51.552;13.424;2022-08-20T03:41:55;20.30;99.90
39919;DHT22;25589;51.552;13.424;2022-08-20T03:44:21;20.30;99.90
39919;DHT22;25589;51.552;13.424;2022-08-20T03:46:46;20.30;99.90
39919;DHT22;25589;51.552;13.424;2022-08-20T03:49:13;20.30;99.90
39919;DHT22;25589;51.552;13.424;2022-08-20T03:51:38;20.30;99.90
39919;DHT22;25589;51.552;13.424;2022-08-20T03:54:04;20.30;99.90
39919;DHT22;25589;51.552;13.424;2022-08-20T03:56:29;20.30;99.90
39919;DHT22;25589;51.552;13.424;2022-08-20T03:58:56;20.20;99.90
39919;DHT22;25589;51.552;13.424;2022-08-20T04:01:22;20.30;99.90
39919;DHT22;25589;51.552;13.424;2022-08-20T04:03:47;20.20;99.90
39919;DHT22;25589;51.552;13.424;2022-08-20T04:06:13;20.30;99.90
39919;DHT22;25589;51.552;13.424;2022-08-20T04:08:38;20.30;99.90
39919;DHT22;25589;51.552;13.424;2022-08-20T04:11:05;20.30;99.90
39919;DHT22;25589;51.552;13.424;2022-08-20T04:13:31;20.30;99.90
39919;DHT22;25589;51.552;13.424;2022-08-20T04:16:00;20.30;99.90
39919;DHT22;25589;51.552;13.424;2022-08-20T04:18:28;20.30;99.90
39919;DHT22;25589;51.552;13.424;2022-08-20T04:20:54;20.30;99.90
39919;DHT22;25589;51.552;13.424;2022-08-20T04:23:20;20.20;99.90
39919;DHT22;25589;51.552;13.424;2022-08-20T04:25:47;20.20;99.90
39919;DHT22;25589;51.552;13.424;2022-08-20T04:28:16;20.20;99.90
39919;DHT22;25589;51.552;13.424;2022-08-20T04:30:49;20.20;99.90
39919;DHT22;25589;51.552;13.424;2022-08-20T04:33:15;20.20;99.90
39919;DHT22;25589;51.552;13.424;2022-08-20T04:35:41;20.20;99.90
39919;DHT22;25589;51.552;13.424;2022-08-20T04:38:08;20.10;99.90
39919;DHT22;25589;51.552;13.424;2022-08-20T04:40:35;20.10;99.90
39919;DHT22;25589;51.552;13.424;2022-08-20T04:43:24;20.10;99.90
39919;DHT22;25589;51.552;13.424;2022-08-20T04:45:50;20.00;99.90
39919;DHT22;25589;51.552;13.424;2022-08-20T04:48:18;20.00;99.90
39919;DHT22;25589;51.552;13.424;2022-08-20T04:50:45;20.10;99.90
39919;DHT22;25589;51.552;13.424;2022-08-20T04:53:16;20.00;99.90
39919;DHT22;25589;51.552;13.424;2022-08-20T04:55:43;20.00;99.90
39919;DHT22;25589;51.552;13.424;2022-08-20T04:58:15;20.00;99.90
39919;DHT22;25589;51.552;13.424;2022-08-20T05:00:45;20.00;99.90
39919;DHT22;25589;51.552;13.424;2022-08-20T05:03:11;20.00;99.90
39919;DHT22;25589;51.552;13.424;2022-08-20T05:05:37;20.00;99.90
39919;DHT22;25589;51.552;13.424;2022-08-20T05:08:03;20.00;99.90
39919;DHT22;25589;51.552;13.424;2022-08-20T05:10:29;20.00;99.90
39919;DHT22;25589;51.552;13.424;2022-08-20T05:12:55;20.00;99.90
39919;DHT22;25589;51.552;13.424;2022-08-20T05:15:20;20.00;99.90
39919;DHT22;25589;51.552;13.424;2022-08-20T05:17:56;20.00;99.90
39919;DHT22;25589;51.552;13.424;2022-08-20T05:20:25;20.00;99.90
39919;DHT22;25589;51.552;13.424;2022-08-20T05:22:52;19.90;99.90
39919;DHT22;25589;51.552;13.424;2022-08-20T05:25:20;19.90;99.90
39919;DHT22;25589;51.552;13.424;2022-08-20T05:27:46;20.00;99.90
39919;DHT22;25589;51.552;13.424;2022-08-20T05:30:11;20.00;99.90
39919;DHT22;25589;51.552;13.424;2022-08-20T05:32:38;20.00;99.90
39919;DHT22;25589;51.552;13.424;2022-08-20T05:35:06;20.00;99.90
39919;DHT22;25589;51.552;13.424;2022-08-20T05:37:38;20.00;99.90
39919;DHT22;25589;51.552;13.424;2022-08-20T05:40:11;20.00;99.90
39919;DHT22;25589;51.552;13.424;2022-08-20T05:42:39;20.10;99.90
39919;DHT22;25589;51.552;13.424;2022-08-20T05:45:05;20.10;99.90
39919;DHT22;25589;51.552;13.424;2022-08-20T05:47:31;20.10;99.90
39919;DHT22;25589;51.552;13.424;2022-08-20T05:49:57;20.00;99.90
39919;DHT22;25589;51.552;13.424;2022-08-20T05:52:22;20.10;99.90
39919;DHT22;25589;51.552;13.424;2022-08-20T05:54:48;20.10;99.90
39919;DHT22;25589;51.552;13.424;2022-08-20T05:57:17;20.10;99.90
39919;DHT22;25589;51.552;13.424;2022-08-20T05:59:47;20.30;99.90
39919;DHT22;25589;51.552;13.424;2022-08-20T06:02:13;20.00;99.90
39919;DHT22;25589;51.552;13.424;2022-08-20T06:04:57;20.10;99.90
39919;DHT22;25589;51.552;13.424;2022-08-20T06:07:22;20.10;99.90
39919;DHT22;25589;51.552;13.424;2022-08-20T06:09:48;20.10;99.90
39919;DHT22;25589;51.552;13.424;2022-08-20T06:12:15;20.00;99.90
39919;DHT22;25589;51.552;13.424;2022-08-20T06:14:41;20.00;99.90
39919;DHT22;25589;51.552;13.424;2022-08-20T06:17:13;20.00;99.90
39919;DHT22;25589;51.552;13.424;2022-08-20T06:19:40;20.10;99.90
39919;DHT22;25589;51.552;13.424;2022-08-20T06:22:06;20.10;99.90
39919;DHT22;25589;51.552;13.424;2022-08-20T06:24:32;20.10;99.90
39919;DHT22;25589;51.552;13.424;2022-08-20T06:26:59;20.00;99.90
39919;DHT22;25589;51.552;13.424;2022-08-20T06:29:27;20.10;99.90
39919;DHT22;25589;51.552;13.424;2022-08-20T06:31:53;20.10;99.90
39919;DHT22;25589;51.552;13.424;2022-08-20T06:34:18;20.10;99.90
39919;DHT22;25589;51.552;13.424;2022-08-20T06:36:45;20.10;99.90
39919;DHT22;25589;51.552;13.424;2022-08-20T06:39:14;20.10;99.90
39919;DHT22;25589;51.552;13.424;2022-08-20T06:41:40;20.10;99.90
39919;DHT22;25589;51.552;13.424;2022-08-20T06:44:06;19.90;99.90
39919;DHT22;25589;51.552;13.424;2022-08-20T06:46:36;20.10;99.90
39919;DHT22;25589;51.552;13.424;2022-08-20T06:49:06;20.10;99.90
39919;DHT22;25589;51.552;13.424;2022-08-20T06:51:32;20.20;99.90
39919;DHT22;25589;51.552;13.424;2022-08-20T06:53:58;20.20;99.90
39919;DHT22;25589;51.552;13.424;2022-08-20T06:56:24;20.20;99.90
39919;DHT22;25589;51.552;13.424;2022-08-20T06:58:50;20.30;99.90
39919;DHT22;25589;51.552;13.424;2022-08-20T07:01:15;20.30;99.90
39919;DHT22;25589;51.552;13.424;2022-08-20T07:03:46;20.30;99.90
39919;DHT22;25589;51.552;13.424;2022-08-20T07:06:13;20.30;99.90
39919;DHT22;25589;51.552;13.424;2022-08-20T07:08:40;20.30;99.90
39919;DHT22;25589;51.552;13.424;2022-08-20T07:11:06;20.30;99.90
39919;DHT22;25589;51.552;13.424;2022-08-20T07:13:32;20.30;99.90
39919;DHT22;25589;51.552;13.424;2022-08-20T07:15:58;20.40;99.90
39919;DHT22;25589;51.552;13.424;2022-08-20T07:18:24;20.40;99.90
39919;DHT22;25589;51.552;13.424;2022-08-20T07:20:49;20.40;99.90
39919;DHT22;25589;51.552;13.424;2022-08-20T07:23:15;20.40;99.90
39919;DHT22;25589;51.552;13.424;2022-08-20T07:25:42;20.30;99.90
39919;DHT22;25589;51.552;13.424;2022-08-20T07:28:14;20.40;99.90
39919;DHT22;25589;51.552;13.424;2022-08-20T07:30:40;20.40;99.90
39919;DHT22;25589;51.552;13.424;2022-08-20T07:33:26;20.50;99.90
39919;DHT22;25589;51.552;13.424;2022-08-20T07:35:52;20.40;99.90
39919;DHT22;25589;51.552;13.424;2022-08-20T07:38:21;20.40;99.90
39919;DHT22;25589;51.552;13.424;2022-08-20T07:40:53;20.40;99.90
39919;DHT22;25589;51.552;13.424;2022-08-20T07:43:20;20.50;99.90
39919;DHT22;25589;51.552;13.424;2022-08-20T07:45:49;20.40;99.90
39919;DHT22;25589;51.552;13.424;2022-08-20T07:48:15;20.40;99.90
39919;DHT22;25589;51.552;13.424;2022-08-20T07:50:42;20.40;99.90
39919;DHT22;25589;51.552;13.424;2022-08-20T07:53:08;20.40;99.90
39919;DHT22;25589;51.552;13.424;2022-08-20T07:55:36;20.40;99.90
39919;DHT22;25589;51.552;13.424;2022-08-20T07:58:08;20.40;99.90
39919;DHT22;25589;51.552;13.424;2022-08-20T08:00:34;20.40;99.90
39919;DHT22;25589;51.552;13.424;2022-08-20T08:03:00;20.50;99.90
39919;DHT22;25589;51.552;13.424;2022-08-20T08:05:26;20.60;99.90
39919;DHT22;25589;51.552;13.424;2022-08-20T08:07:51;20.50;99.90
39919;DHT22;25589;51.552;13.424;2022-08-20T08:10:20;20.50;99.90
39919;DHT22;25589;51.552;13.424;2022-08-20T08:12:50;20.50;99.90
39919;DHT22;25589;51.552;13.424;2022-08-20T08:15:19;20.60;99.90
39919;DHT22;25589;51.552;13.424;2022-08-20T08:17:46;20.50;99.90
39919;DHT22;25589;51.552;13.424;2022-08-20T08:20:14;20.50;99.90
39919;DHT22;25589;51.552;13.424;2022-08-20T08:22:40;20.50;99.90
39919;DHT22;25589;51.552;13.424;2022-08-20T08:25:09;20.50;99.90
39919;DHT22;25589;51.552;13.424;2022-08-20T08:27:34;20.50;99.90
39919;DHT22;25589;51.552;13.424;2022-08-20T08:30:00;20.60;99.90
39919;DHT22;25589;51.552;13.424;2022-08-20T08:32:28;20.60;99.90
39919;DHT22;25589;51.552;13.424;2022-08-20T08:34:55;20.50;99.90
39919;DHT22;25589;51.552;13.424;2022-08-20T08:37:21;20.60;99.90
39919;DHT22;25589;51.552;13.424;2022-08-20T08:39:47;20.60;99.90
39919;DHT22;25589;51.552;13.424;2022-08-20T08:42:25;20.60;99.90
39919;DHT22;25589;51.552;13.424;2022-08-20T08:44:52;20.60;99.90
39919;DHT22;25589;51.552;13.424;2022-08-20T08:47:31;20.60;99.90
39919;DHT22;25589;51.552;13.424;2022-08-20T08:50:00;20.60;99.90
39919;DHT22;25589;51.552;13.424;2022-08-20T08:52:29;20.70;99.90
39919;DHT22;25589;51.552;13.424;2022-08-20T08:54:58;20.70;99.90
39919;DHT22;25589;51.552;13.424;2022-08-20T08:57:25;20.80;99.90
39919;DHT22;25589;51.552;13.424;2022-08-20T09:00:12;20.70;99.90
39919;DHT22;25589;51.552;13.424;2022-08-20T09:02:51;20.80;99.90
39919;DHT22;25589;51.552;13.424;2022-08-20T09:05:19;20.80;99.90
39919;DHT22;25589;51.552;13.424;2022-08-20T09:07:50;20.80;99.90
39919;DHT22;25589;51.552;13.424;2022-08-20T09:10:16;20.90;99.90
39919;DHT22;25589;51.552;13.424;2022-08-20T09:12:42;20.90;99.90
39919;DHT22;25589;51.552;13.424;2022-08-20T09:15:09;20.90;99.90
39919;DHT22;25589;51.552;13.424;2022-08-20T09:17:35;21.00;99.90
39919;DHT22;25589;51.552;13.424;2022-08-20T09:20:00;21.00;99.90
39919;DHT22;25589;51.552;13.424;2022-08-20T09:22:26;21.10;99.90
39919;DHT22;25589;51.552;13.424;2022-08-20T09:24:52;21.10;99.90
39919;DHT22;25589;51.552;13.424;2022-08-20T09:27:18;21.20;99.90
39919;DHT22;25589;51.552;13.424;2022-08-20T09:29:44;21.20;99.90
39919;DHT22;25589;51.552;13.424;2022-08-20T09:32:11;21.30;99.90
39919;DHT22;25589;51.552;13.424;2022-08-20T09:34:38;21.40;99.90
39919;DHT22;25589;51.552;13.424;2022-08-20T09:37:04;21.40;99.90
39919;DHT22;25589;51.552;13.424;2022-08-20T09:39:30;21.40;99.90
39919;DHT22;25589;51.552;13.424;2022-08-20T09:42:06;21.40;99.90
39919;DHT22;25589;51.552;13.424;2022-08-20T09:44:31;21.40;99.90
39919;DHT22;25589;51.552;13.424;2022-08-20T09:46:57;21.40;99.90
39919;DHT22;25589;51.552;13.424;2022-08-20T09:49:22;21.50;99.90
39919;DHT22;25589;51.552;13.424;2022-08-20T09:51:48;21.60;99.90
39919;DHT22;25589;51.552;13.424;2022-08-20T09:54:13;21.60;99.90
39919;DHT22;25589;51.552;13.424;2022-08-20T09:56:39;21.70;99.90
39919;DHT22;25589;51.552;13.424;2022-08-20T09:59:05;21.70;99.90
39919;DHT22;25589;51.552;13.424;2022-08-20T10:01:30;21.80;99.90
39919;DHT22;25589;51.552;13.424;2022-08-20T10:03:58;21.80;99.90
39919;DHT22;25589;51.552;13.424;2022-08-20T10:06:24;21.80;99.90
39919;DHT22;25589;51.552;13.424;2022-08-20T10:08:49;21.70;99.90
39919;DHT22;25589;51.552;13.424;2022-08-20T10:11:16;21.70;99.90
39919;DHT22;25589;51.552;13.424;2022-08-20T10:13:42;21.70;99.90
39919;DHT22;25589;51.552;13.424;2022-08-20T10:16:08;21.70;99.90
39919;DHT22;25589;51.552;13.424;2022-08-20T10:18:34;21.70;99.90
39919;DHT22;25589;51.552;13.424;2022-08-20T10:21:00;21.70;99.90
39919;DHT22;25589;51.552;13.424;2022-08-20T10:23:26;21.60;99.90
39919;DHT22;25589;51.552;13.424;2022-08-20T10:25:51;21.70;99.90
39919;DHT22;25589;51.552;13.424;2022-08-20T10:28:17;21.70;99.90
39919;DHT22;25589;51.552;13.424;2022-08-20T10:30:42;21.80;99.90
39919;DHT22;25589;51.552;13.424;2022-08-20T10:33:09;21.80;99.90
39919;DHT22;25589;51.552;13.424;2022-08-20T10:35:35;22.00;99.90
39919;DHT22;25589;51.552;13.424;2022-08-20T10:38:00;22.00;99.90
39919;DHT22;25589;51.552;13.424;2022-08-20T10:40:26;22.10;99.90
39919;DHT22;25589;51.552;13.424;2022-08-20T10:42:52;22.20;99.90
39919;DHT22;25589;51.552;13.424;2022-08-20T10:45:17;22.20;99.90
39919;DHT22;25589;51.552;13.424;2022-08-20T10:47:43;22.20;99.90
39919;DHT22;25589;51.552;13.424;2022-08-20T10:50:12;22.10;99.90
39919;DHT22;25589;51.552;13.424;2022-08-20T10:52:39;22.20;99.90
39919;DHT22;25589;51.552;13.424;2022-08-20T10:55:04;22.30;99.90
39919;DHT22;25589;51.552;13.424;2022-08-20T10:57:31;22.40;99.90
39919;DHT22;25589;51.552;13.424;2022-08-20T10:59:58;22.40;99.90
39919;DHT22;25589;51.552;13.424;2022-08-20T11:02:24;22.40;99.90
39919;DHT22;25589;51.552;13.424;2022-08-20T11:04:51;22.40;99.90
39919;DHT22;25589;51.552;13.424;2022-08-20T11:07:30;22.40;99.90
39919;DHT22;25589;51.552;13.424;2022-08-20T11:09:57;22.40;99.90
39919;DHT22;25589;51.552;13.424;2022-08-20T11:12:23;22.40;99.90
39919;DHT22;25589;51.552;13.424;2022-08-20T11:14:50;22.40;99.90
39919;DHT22;25589;51.552;13.424;2022-08-20T11:17:28;22.30;99.90
39919;DHT22;25589;51.552;13.424;2022-08-20T11:19:56;22.30;99.90
39919;DHT22;25589;51.552;13.424;2022-08-20T11:22:22;22.30;99.90
39919;DHT22;25589;51.552;13.424;2022-08-20T11:24:48;22.40;99.90
39919;DHT22;25589;51.552;13.424;2022-08-20T11:27:22;22.50;99.90
39919;DHT22;25589;51.552;13.424;2022-08-20T11:29:48;22.50;99.90
39919;DHT22;25589;51.552;13.424;2022-08-20T11:32:13;22.50;99.90
39919;DHT22;25589;51.552;13.424;2022-08-20T11:34:39;22.50;99.90
39919;DHT22;25589;51.552;13.424;2022-08-20T11:37:04;22.40;99.90
39919;DHT22;25589;51.552;13.424;2022-08-20T11:39:30;22.40;99.90
39919;DHT22;25589;51.552;13.424;2022-08-20T11:41:55;22.40;99.90
39919;DHT22;25589;51.552;13.424;2022-08-20T11:44:21;22.50;99.90
39919;DHT22;25589;51.552;13.424;2022-08-20T11:46:47;22.40;99.90
39919;DHT22;25589;51.552;13.424;2022-08-20T11:49:13;22.40;99.90
39919;DHT22;25589;51.552;13.424;2022-08-20T11:51:38;22.40;99.90
39919;DHT22;25589;51.552;13.424;2022-08-20T11:54:04;22.40;99.90
39919;DHT22;25589;51.552;13.424;2022-08-20T11:56:30;22.30;99.90
39919;DHT22;25589;51.552;13.424;2022-08-20T11:58:56;22.40;99.90
39919;DHT22;25589;51.552;13.424;2022-08-20T12:01:21;22.40;99.90
39919;DHT22;25589;51.552;13.424;2022-08-20T12:03:47;22.40;99.90
39919;DHT22;25589;51.552;13.424;2022-08-20T12:06:13;22.40;99.90
39919;DHT22;25589;51.552;13.424;2022-08-20T12:08:38;22.40;99.90
39919;DHT22;25589;51.552;13.424;2022-08-20T12:11:04;22.30;99.90
39919;DHT22;25589;51.552;13.424;2022-08-20T12:13:32;22.20;99.90
39919;DHT22;25589;51.552;13.424;2022-08-20T12:15:58;22.20;99.90
39919;DHT22;25589;51.552;13.424;2022-08-20T12:18:24;22.20;99.90
39919;DHT22;25589;51.552;13.424;2022-08-20T12:20:50;22.20;99.90
39919;DHT22;25589;51.552;13.424;2022-08-20T12:23:15;22.20;99.90
39919;DHT22;25589;51.552;13.424;2022-08-20T12:25:41;22.20;99.90
39919;DHT22;25589;51.552;13.424;2022-08-20T12:28:06;22.20;99.90
39919;DHT22;25589;51.552;13.424;2022-08-20T12:30:33;22.30;99.90
39919;DHT22;25589;51.552;13.424;2022-08-20T12:32:59;22.20;99.90
39919;DHT22;25589;51.552;13.424;2022-08-20T12:35:25;22.30;99.90
39919;DHT22;25589;51.552;13.424;2022-08-20T12:37:51;22.30;99.90
39919;DHT22;25589;51.552;13.424;2022-08-20T12:40:21;22.30;99.90
39919;DHT22;25589;51.552;13.424;2022-08-20T12:42:46;22.30;99.90
39919;DHT22;25589;51.552;13.424;2022-08-20T12:45:13;22.20;99.90
39919;DHT22;25589;51.552;13.424;2022-08-20T12:47:40;22.20;99.90
39919;DHT22;25589;51.552;13.424;2022-08-20T12:50:11;22.20;99.90
39919;DHT22;25589;51.552;13.424;2022-08-20T12:52:37;22.10;99.90
39919;DHT22;25589;51.552;13.424;2022-08-20T12:55:04;22.10;99.90
39919;DHT22;25589;51.552;13.424;2022-08-20T12:57:33;22.10;99.90
39919;DHT22;25589;51.552;13.424;2022-08-20T13:00:06;22.10;99.90
39919;DHT22;25589;51.552;13.424;2022-08-20T13:02:32;22.20;99.90
39919;DHT22;25589;51.552;13.424;2022-08-20T13:04:58;22.20;99.90
39919;DHT22;25589;51.552;13.424;2022-08-20T13:07:23;22.20;99.90
39919;DHT22;25589;51.552;13.424;2022-08-20T13:09:49;22.20;99.90
39919;DHT22;25589;51.552;13.424;2022-08-20T13:12:15;22.40;99.90
39919;DHT22;25589;51.552;13.424;2022-08-20T13:14:41;22.30;99.90
39919;DHT22;25589;51.552;13.424;2022-08-20T13:17:07;22.30;99.90
39919;DHT22;25589;51.552;13.424;2022-08-20T13:19:35;22.30;99.90
39919;DHT22;25589;51.552;13.424;2022-08-20T13:22:01;22.30;99.90
39919;DHT22;25589;51.552;13.424;2022-08-20T13:24:27;22.20;99.90
39919;DHT22;25589;51.552;13.424;2022-08-20T13:26:53;22.10;99.90
39919;DHT22;25589;51.552;13.424;2022-08-20T13:29:19;22.10;99.90
39919;DHT22;25589;51.552;13.424;2022-08-20T13:31:45;22.10;99.90
39919;DHT22;25589;51.552;13.424;2022-08-20T13:34:10;22.00;99.90
39919;DHT22;25589;51.552;13.424;2022-08-20T13:36:36;22.00;99.90
39919;DHT22;25589;51.552;13.424;2022-08-20T13:39:04;21.90;99.90
39919;DHT22;25589;51.552;13.424;2022-08-20T13:41:29;21.90;99.90
39919;DHT22;25589;51.552;13.424;2022-08-20T13:43:55;21.70;99.90
39919;DHT22;25589;51.552;13.424;2022-08-20T13:46:21;21.60;99.90
39919;DHT22;25589;51.552;13.424;2022-08-20T13:48:46;21.60;99.90
39919;DHT22;25589;51.552;13.424;2022-08-20T13:51:12;21.60;99.90
39919;DHT22;25589;51.552;13.424;2022-08-20T13:53:37;21.50;99.90
39919;DHT22;25589;51.552;13.424;2022-08-20T13:56:03;21.40;99.90
39919;DHT22;25589;51.552;13.424;2022-08-20T13:58:29;21.30;99.90
39919;DHT22;25589;51.552;13.424;2022-08-20T14:00:55;21.30;99.90
39919;DHT22;25589;51.552;13.424;2022-08-20T14:03:20;21.20;99.90
39919;DHT22;25589;51.552;13.424;2022-08-20T14:05:46;21.20;99.90
39919;DHT22;25589;51.552;13.424;2022-08-20T14:08:15;21.20;99.90
39919;DHT22;25589;51.552;13.424;2022-08-20T14:10:41;21.20;99.90
39919;DHT22;25589;51.552;13.424;2022-08-20T14:13:07;21.10;99.90
39919;DHT22;25589;51.552;13.424;2022-08-20T14:15:36;21.10;99.90
39919;DHT22;25589;51.552;13.424;2022-08-20T14:18:03;21.00;99.90
39919;DHT22;25589;51.552;13.424;2022-08-20T14:20:32;21.00;99.90
39919;DHT22;25589;51.552;13.424;2022-08-20T14:22:58;21.00;99.90
39919;DHT22;25589;51.552;13.424;2022-08-20T14:25:25;20.90;99.90
39919;DHT22;25589;51.552;13.424;2022-08-20T14:27:52;20.90;99.90
39919;DHT22;25589;51.552;13.424;2022-08-20T14:30:21;20.90;99.90
39919;DHT22;25589;51.552;13.424;2022-08-20T14:32:47;20.90;99.90
39919;DHT22;25589;51.552;13.424;2022-08-20T14:35:13;20.90;99.90
39919;DHT22;25589;51.552;13.424;2022-08-20T14:37:41;20.90;99.90
39919;DHT22;25589;51.552;13.424;2022-08-20T14:40:11;20.90;99.90
39919;DHT22;25589;51.552;13.424;2022-08-20T14:42:37;21.00;99.90
39919;DHT22;25589;51.552;13.424;2022-08-20T14:45:05;21.00;99.90
39919;DHT22;25589;51.552;13.424;2022-08-20T14:47:39;21.00;99.90
39919;DHT22;25589;51.552;13.424;2022-08-20T14:50:11;21.00;99.90
39919;DHT22;25589;51.552;13.424;2022-08-20T14:52:38;21.10;99.90
39919;DHT22;25589;51.552;13.424;2022-08-20T14:55:08;21.10;99.90
39919;DHT22;25589;51.552;13.424;2022-08-20T14:57:34;21.10;99.90
39919;DHT22;25589;51.552;13.424;2022-08-20T15:00:00;21.20;99.90
39919;DHT22;25589;51.552;13.424;2022-08-20T15:02:25;21.20;99.90
39919;DHT22;25589;51.552;13.424;2022-08-20T15:04:51;21.20;99.90
39919;DHT22;25589;51.552;13.424;2022-08-20T15:09:48;21.30;99.90
39919;DHT22;25589;51.552;13.424;2022-08-20T15:12:14;21.30;99.90
39919;DHT22;25589;51.552;13.424;2022-08-20T15:14:39;21.30;99.90
39919;DHT22;25589;51.552;13.424;2022-08-20T15:17:05;21.40;99.90
39919;DHT22;25589;51.552;13.424;2022-08-20T15:19:31;21.30;99.90